sensor_id;sensor_type;location;lat;lon;timestamp;pressure;altitude;pressure_sealevel;temperature;humidity
44297;BME280;51842;47.450;8.654;2024-02-15T00:00:16;96009.59;;;3.93;95.45
44297;BME280;51842;47.450;8.654;2024-02-15T00:02:43;96007.97;;;3.92;95.71
44297;BME280;51842;47.450;8.654;2024-02-15T00:05:12;96004.53;;;3.85;95.87
44297;BME280;51842;47.450;8.654;2024-02-15T00:07:40;96008.16;;;3.91;95.35
44297;BME280;51842;47.450;8.654;2024-02-15T00:10:07;96007.16;;;3.92;95.29
44297;BME280;51842;47.450;8.654;2024-02-15T00:12:34;96017.09;;;3.90;95.16
44297;BME280;51842;47.450;8.654;2024-02-15T00:15:01;96013.66;;;3.89;94.57
44297;BME280;51842;47.450;8.654;2024-02-15T00:17:28;96009.81;;;3.85;95.00
44297;BME280;51842;47.450;8.654;2024-02-15T00:19:56;96004.53;;;3.85;94.49
44297;BME280;51842;47.450;8.654;2024-02-15T00:22:22;96005.81;;;3.83;94.96
44297;BME280;51842;47.450;8.654;2024-02-15T00:24:48;96007.22;;;3.79;95.84
44297;BME280;51842;47.450;8.654;2024-02-15T00:27:17;96013.56;;;3.71;95.70
44297;BME280;51842;47.450;8.654;2024-02-15T00:29:43;96013.00;;;3.62;96.55
44297;BME280;51842;47.450;8.654;2024-02-15T00:32:10;96013.22;;;3.61;97.09
44297;BME280;51842;47.450;8.654;2024-02-15T00:34:37;96012.59;;;3.59;97.12
44297;BME280;51842;47.450;8.654;2024-02-15T00:37:06;96010.81;;;3.53;97.56
44297;BME280;51842;47.450;8.654;2024-02-15T00:39:32;96020.16;;;3.48;97.31
44297;BME280;51842;47.450;8.654;2024-02-15T00:41:58;96013.66;;;3.44;97.18
44297;BME280;51842;47.450;8.654;2024-02-15T00:44:27;96012.69;;;3.39;98.04
44297;BME280;51842;47.450;8.654;2024-02-15T00:46:53;96017.16;;;3.32;98.67
44297;BME280;51842;47.450;8.654;2024-02-15T00:49:19;96011.09;;;3.31;98.87
44297;BME280;51842;47.450;8.654;2024-02-15T00:51:48;96017.78;;;3.27;99.26
44297;BME280;51842;47.450;8.654;2024-02-15T00:54:15;96006.91;;;3.17;99.91
44297;BME280;51842;47.450;8.654;2024-02-15T00:56:41;96004.88;;;3.12;100.00
44297;BME280;51842;47.450;8.654;2024-02-15T00:59:07;96007.13;;;3.09;100.00
44297;BME280;51842;47.450;8.654;2024-02-15T01:01:33;96010.13;;;3.12;100.00
44297;BME280;51842;47.450;8.654;2024-02-15T01:03:59;96008.69;;;3.16;100.00
44297;BME280;51842;47.450;8.654;2024-02-15T01:06:25;96008.13;;;3.08;100.00
44297;BME280;51842;47.450;8.654;2024-02-15T01:08:50;96009.78;;;3.02;100.00
44297;BME280;51842;47.450;8.654;2024-02-15T01:11:17;96004.69;;;3.00;100.00
44297;BME280;51842;47.450;8.654;2024-02-15T01:13:43;96002.69;;;2.96;100.00
44297;BME280;51842;47.450;8.654;2024-02-15T01:16:09;96011.19;;;2.91;100.00
44297;BME280;51842;47.450;8.654;2024-02-15T01:18:36;96014.84;;;2.90;100.00
44297;BME280;51842;47.450;8.654;2024-02-15T01:21:02;96010.19;;;2.92;100.00
44297;BME280;51842;47.450;8.654;2024-02-15T01:23:28;96010.00;;;2.87;100.00
44297;BME280;51842;47.450;8.654;2024-02-15T01:25:54;96014.47;;;2.80;100.00
44297;BME280;51842;47.450;8.654;2024-02-15T01:28:20;96008.19;;;2.74;100.00
44297;BME280;51842;47.450;8.654;2024-02-15T01:30:47;96011.66;;;2.68;100.00
44297;BME280;51842;47.450;8.654;2024-02-15T01:33:13;96007.81;;;2.71;100.00
44297;BME280;51842;47.450;8.654;2024-02-15T01:35:39;96013.47;;;2.68;100.00
44297;BME280;51842;47.450;8.654;2024-02-15T01:38:05;96008.22;;;2.68;100.00
44297;BME280;51842;47.450;8.654;2024-02-15T01:40:32;96008.63;;;2.65;100.00
44297;BME280;51842;47.450;8.654;2024-02-15T01:42:58;96009.84;;;2.62;100.00
44297;BME280;51842;47.450;8.654;2024-02-15T01:45:24;96009.25;;;2.60;100.00
44297;BME280;51842;47.450;8.654;2024-02-15T01:47:53;96012.88;;;2.59;100.00
44297;BME280;51842;47.450;8.654;2024-02-15T01:50:20;96009.03;;;2.62;100.00
44297;BME280;51842;47.450;8.654;2024-02-15T01:52:51;96000.34;;;2.54;100.00
44297;BME280;51842;47.450;8.654;2024-02-15T01:55:19;96004.19;;;2.52;100.00
44297;BME280;51842;47.450;8.654;2024-02-15T01:57:45;95996.69;;;2.49;100.00
44297;BME280;51842;47.450;8.654;2024-02-15T02:00:12;95995.28;;;2.53;100.00
44297;BME280;51842;47.450;8.654;2024-02-15T02:02:42;96003.56;;;2.57;100.00
44297;BME280;51842;47.450;8.654;2024-02-15T02:05:10;95992.63;;;2.60;100.00
44297;BME280;51842;47.450;8.654;2024-02-15T02:07:37;95991.84;;;2.52;100.00
44297;BME280;51842;47.450;8.654;2024-02-15T02:10:04;95995.69;;;2.50;100.00
44297;BME280;51842;47.450;8.654;2024-02-15T02:12:32;95993.03;;;2.50;100.00
44297;BME280;51842;47.450;8.654;2024-02-15T02:14:58;95993.66;;;2.45;100.00
44297;BME280;51842;47.450;8.654;2024-02-15T02:17:24;95985.56;;;2.47;100.00
44297;BME280;51842;47.450;8.654;2024-02-15T02:19:50;95979.09;;;2.43;100.00
44297;BME280;51842;47.450;8.654;2024-02-15T02:22:17;95978.09;;;2.44;100.00
44297;BME280;51842;47.450;8.654;2024-02-15T02:25:06;95969.41;;;2.37;100.00
44297;BME280;51842;47.450;8.654;2024-02-15T02:27:35;95971.22;;;2.36;100.00
44297;BME280;51842;47.450;8.654;2024-02-15T02:30:12;95967.16;;;2.34;100.00
44297;BME280;51842;47.450;8.654;2024-02-15T02:32:41;95970.03;;;2.32;100.00
44297;BME280;51842;47.450;8.654;2024-02-15T02:35:08;95963.34;;;2.36;100.00
44297;BME280;51842;47.450;8.654;2024-02-15T02:37:40;95960.91;;;2.35;100.00
44297;BME280;51842;47.450;8.654;2024-02-15T02:40:08;95966.38;;;2.33;100.00
44297;BME280;51842;47.450;8.654;2024-02-15T02:42:56;95966.78;;;2.37;100.00
44297;BME280;51842;47.450;8.654;2024-02-15T02:45:25;95965.94;;;2.43;100.00
44297;BME280;51842;47.450;8.654;2024-02-15T02:47:52;95962.13;;;2.45;100.00
44297;BME280;51842;47.450;8.654;2024-02-15T02:50:21;95962.91;;;2.46;100.00
44297;BME280;51842;47.450;8.654;2024-02-15T02:52:48;95964.34;;;2.42;100.00
44297;BME280;51842;47.450;8.654;2024-02-15T02:55:15;95963.09;;;2.44;100.00
44297;BME280;51842;47.450;8.654;2024-02-15T02:57:41;95947.97;;;2.40;100.00
44297;BME280;51842;47.450;8.654;2024-02-15T03:00:15;95954.00;;;2.40;100.00
44297;BME280;51842;47.450;8.654;2024-02-15T03:02:44;95949.16;;;2.44;100.00
44297;BME280;51842;47.450;8.654;2024-02-15T03:05:11;95950.78;;;2.45;100.00
44297;BME280;51842;47.450;8.654;2024-02-15T03:07:39;95958.25;;;2.41;100.00
44297;BME280;51842;47.450;8.654;2024-02-15T03:10:09;95949.97;;;2.44;100.00
44297;BME280;51842;47.450;8.654;2024-02-15T03:12:40;95953.41;;;2.38;100.00
44297;BME280;51842;47.450;8.654;2024-02-15T03:15:09;95955.22;;;2.38;100.00
44297;BME280;51842;47.450;8.654;2024-02-15T03:17:42;95952.81;;;2.36;100.00
44297;BME280;51842;47.450;8.654;2024-02-15T03:20:11;95944.31;;;2.34;100.00
44297;BME280;51842;47.450;8.654;2024-02-15T03:22:57;95945.13;;;2.28;100.00
44297;BME280;51842;47.450;8.654;2024-02-15T03:25:26;95938.66;;;2.30;100.00
44297;BME280;51842;47.450;8.654;2024-02-15T03:27:57;95946.53;;;2.30;100.00
44297;BME280;51842;47.450;8.654;2024-02-15T03:30:26;95937.63;;;2.31;100.00
44297;BME280;51842;47.450;8.654;2024-02-15T03:32:53;95942.72;;;2.33;100.00
44297;BME280;51842;47.450;8.654;2024-02-15T03:35:22;95940.28;;;2.25;100.00
44297;BME280;51842;47.450;8.654;2024-02-15T03:37:49;95943.13;;;2.23;100.00
44297;BME280;51842;47.450;8.654;2024-02-15T03:40:20;95944.13;;;2.16;100.00
44297;BME280;51842;47.450;8.654;2024-02-15T03:42:47;95942.91;;;2.12;100.00
44297;BME280;51842;47.450;8.654;2024-02-15T03:45:13;95949.19;;;2.11;100.00
44297;BME280;51842;47.450;8.654;2024-02-15T03:47:39;95940.28;;;2.05;100.00
44297;BME280;51842;47.450;8.654;2024-02-15T03:50:08;95939.50;;;1.98;100.00
44297;BME280;51842;47.450;8.654;2024-02-15T03:52:38;95938.88;;;1.96;100.00
44297;BME280;51842;47.450;8.654;2024-02-15T03:55:05;95943.72;;;1.92;100.00
44297;BME280;51842;47.450;8.654;2024-02-15T03:57:33;95938.25;;;1.94;100.00
44297;BME280;51842;47.450;8.654;2024-02-15T04:00:00;95933.41;;;1.91;100.00
44297;BME280;51842;47.450;8.654;2024-02-15T04:02:27;95931.78;;;1.90;100.00
44297;BME280;51842;47.450;8.654;2024-02-15T04:04:54;95937.84;;;1.83;100.00
44297;BME280;51842;47.450;8.654;2024-02-15T04:07:22;95933.41;;;1.77;100.00
44297;BME280;51842;47.450;8.654;2024-02-15T04:09:50;95944.13;;;1.76;100.00
44297;BME280;51842;47.450;8.654;2024-02-15T04:12:16;95941.69;;;1.74;100.00
44297;BME280;51842;47.450;8.654;2024-02-15T04:14:43;95943.50;;;1.74;100.00
44297;BME280;51842;47.450;8.654;2024-02-15T04:17:13;95949.16;;;1.71;100.00
44297;BME280;51842;47.450;8.654;2024-02-15T04:19:41;95941.66;;;1.68;100.00
44297;BME280;51842;47.450;8.654;2024-02-15T04:22:08;95942.88;;;1.65;100.00
44297;BME280;51842;47.450;8.654;2024-02-15T04:24:35;95940.06;;;1.60;100.00
44297;BME280;51842;47.450;8.654;2024-02-15T04:27:09;95943.25;;;1.55;100.00
44297;BME280;51842;47.450;8.654;2024-02-15T04:29:40;95938.00;;;1.49;100.00
44297;BME280;51842;47.450;8.654;2024-02-15T04:32:08;95934.75;;;1.47;100.00
44297;BME280;51842;47.450;8.654;2024-02-15T04:34:38;95937.38;;;1.47;100.00
44297;BME280;51842;47.450;8.654;2024-02-15T04:37:05;95923.66;;;1.38;100.00
44297;BME280;51842;47.450;8.654;2024-02-15T04:39:37;95929.72;;;1.38;100.00
44297;BME280;51842;47.450;8.654;2024-02-15T04:42:04;95935.34;;;1.35;100.00
44297;BME280;51842;47.450;8.654;2024-02-15T04:44:32;95929.88;;;1.30;100.00
44297;BME280;51842;47.450;8.654;2024-02-15T04:47:02;95926.22;;;1.25;100.00
44297;BME280;51842;47.450;8.654;2024-02-15T04:49:32;95923.41;;;1.26;100.00
44297;BME280;51842;47.450;8.654;2024-02-15T04:51:58;95925.22;;;1.26;100.00
44297;BME280;51842;47.450;8.654;2024-02-15T04:54:24;95923.00;;;1.23;100.00
44297;BME280;51842;47.450;8.654;2024-02-15T04:56:51;95921.16;;;1.17;100.00
44297;BME280;51842;47.450;8.654;2024-02-15T04:59:20;95920.56;;;1.21;100.00
44297;BME280;51842;47.450;8.654;2024-02-15T05:01:47;95917.53;;;1.18;100.00
44297;BME280;51842;47.450;8.654;2024-02-15T05:04:15;95927.41;;;1.15;100.00
44297;BME280;51842;47.450;8.654;2024-02-15T05:06:41;95925.19;;;1.19;100.00
44297;BME280;51842;47.450;8.654;2024-02-15T05:09:07;95925.22;;;1.26;100.00
44297;BME280;51842;47.450;8.654;2024-02-15T05:11:42;95926.03;;;1.20;100.00
44297;BME280;51842;47.450;8.654;2024-02-15T05:14:13;95925.81;;;1.21;100.00
44297;BME280;51842;47.450;8.654;2024-02-15T05:16:45;95917.75;;;1.23;100.00
44297;BME280;51842;47.450;8.654;2024-02-15T05:19:17;95926.44;;;1.23;100.00
44297;BME280;51842;47.450;8.654;2024-02-15T05:21:47;95926.22;;;1.25;100.00
44297;BME280;51842;47.450;8.654;2024-02-15T05:24:15;95921.97;;;1.24;100.00
44297;BME280;51842;47.450;8.654;2024-02-15T05:26:44;95920.38;;;1.23;100.00
44297;BME280;51842;47.450;8.654;2024-02-15T05:29:14;95918.56;;;1.23;100.00
44297;BME280;51842;47.450;8.654;2024-02-15T05:31:40;95917.75;;;1.23;100.00
44297;BME280;51842;47.450;8.654;2024-02-15T05:34:10;95920.34;;;1.16;100.00
44297;BME280;51842;47.450;8.654;2024-02-15T05:36:40;95922.78;;;1.18;100.00
44297;BME280;51842;47.450;8.654;2024-02-15T05:39:06;95919.34;;;1.17;100.00
44297;BME280;51842;47.450;8.654;2024-02-15T05:41:33;95912.44;;;1.09;100.00
44297;BME280;51842;47.450;8.654;2024-02-15T05:44:00;95920.53;;;1.08;100.00
44297;BME280;51842;47.450;8.654;2024-02-15T05:46:26;95911.03;;;1.07;100.00
44297;BME280;51842;47.450;8.654;2024-02-15T05:48:54;95911.19;;;0.99;100.00
44297;BME280;51842;47.450;8.654;2024-02-15T05:51:21;95912.22;;;0.98;100.00
44297;BME280;51842;47.450;8.654;2024-02-15T05:53:48;95904.94;;;1.00;100.00
44297;BME280;51842;47.450;8.654;2024-02-15T05:56:15;95899.50;;;1.01;100.00
44297;BME280;51842;47.450;8.654;2024-02-15T05:58:42;95897.47;;;1.03;100.00
44297;BME280;51842;47.450;8.654;2024-02-15T06:01:08;95905.72;;;0.93;100.00
44297;BME280;51842;47.450;8.654;2024-02-15T06:03:38;95899.91;;;0.98;100.00
44297;BME280;51842;47.450;8.654;2024-02-15T06:06:06;95903.97;;;1.01;100.00
44297;BME280;51842;47.450;8.654;2024-02-15T06:08:37;95904.53;;;1.03;100.00
44297;BME280;51842;47.450;8.654;2024-02-15T06:11:04;95906.38;;;1.02;100.00
44297;BME280;51842;47.450;8.654;2024-02-15T06:13:35;95899.94;;;1.05;100.00
44297;BME280;51842;47.450;8.654;2024-02-15T06:16:01;95900.94;;;1.04;100.00
44297;BME280;51842;47.450;8.654;2024-02-15T06:18:30;95901.75;;;1.04;100.00
44297;BME280;51842;47.450;8.654;2024-02-15T06:20:59;95892.84;;;1.05;100.00
44297;BME280;51842;47.450;8.654;2024-02-15T06:23:26;95884.19;;;1.05;100.00
44297;BME280;51842;47.450;8.654;2024-02-15T06:25:56;95881.56;;;1.05;100.00
44297;BME280;51842;47.450;8.654;2024-02-15T06:28:24;95895.88;;;1.02;100.00
44297;BME280;51842;47.450;8.654;2024-02-15T06:31:10;95888.00;;;1.02;100.00
44297;BME280;51842;47.450;8.654;2024-02-15T06:33:56;95892.06;;;1.05;100.00
44297;BME280;51842;47.450;8.654;2024-02-15T06:36:55;95898.72;;;1.07;100.00
44297;BME280;51842;47.450;8.654;2024-02-15T06:39:40;95897.53;;;1.10;100.00
44297;BME280;51842;47.450;8.654;2024-02-15T06:42:12;95896.13;;;1.14;100.00
44297;BME280;51842;47.450;8.654;2024-02-15T06:44:43;95902.00;;;1.16;100.00
44297;BME280;51842;47.450;8.654;2024-02-15T06:47:09;95908.06;;;1.23;100.00
44297;BME280;51842;47.450;8.654;2024-02-15T06:49:38;95910.28;;;1.26;100.00
44297;BME280;51842;47.450;8.654;2024-02-15T06:52:10;95910.28;;;1.20;100.00
44297;BME280;51842;47.450;8.654;2024-02-15T06:54:39;95915.72;;;1.25;100.00
44297;BME280;51842;47.450;8.654;2024-02-15T06:57:05;95915.31;;;1.28;100.00
44297;BME280;51842;47.450;8.654;2024-02-15T06:59:33;95915.72;;;1.31;100.00
44297;BME280;51842;47.450;8.654;2024-02-15T07:02:05;95911.50;;;1.37;100.00
44297;BME280;51842;47.450;8.654;2024-02-15T07:04:32;95914.78;;;1.46;100.00
44297;BME280;51842;47.450;8.654;2024-02-15T07:06:58;95913.78;;;1.60;100.00
44297;BME280;51842;47.450;8.654;2024-02-15T07:09:25;95911.38;;;1.72;100.00
44297;BME280;51842;47.450;8.654;2024-02-15T07:11:52;95908.16;;;1.76;100.00
44297;BME280;51842;47.450;8.654;2024-02-15T07:14:18;95911.41;;;1.85;100.00
44297;BME280;51842;47.450;8.654;2024-02-15T07:16:49;95906.72;;;1.94;100.00
44297;BME280;51842;47.450;8.654;2024-02-15T07:19:17;95902.09;;;2.02;100.00
44297;BME280;51842;47.450;8.654;2024-02-15T07:21:44;95909.56;;;2.12;100.00
44297;BME280;51842;47.450;8.654;2024-02-15T07:24:11;95907.94;;;2.24;100.00
44297;BME280;51842;47.450;8.654;2024-02-15T07:26:37;95895.56;;;2.38;100.00
44297;BME280;51842;47.450;8.654;2024-02-15T07:29:03;95906.66;;;2.53;100.00
44297;BME280;51842;47.450;8.654;2024-02-15T07:31:34;95906.41;;;2.68;100.00
44297;BME280;51842;47.450;8.654;2024-02-15T07:34:00;95907.78;;;2.84;100.00
44297;BME280;51842;47.450;8.654;2024-02-15T07:36:26;95902.47;;;3.04;100.00
44297;BME280;51842;47.450;8.654;2024-02-15T07:38:54;95905.59;;;3.26;100.00
44297;BME280;51842;47.450;8.654;2024-02-15T07:41:24;95902.06;;;3.45;100.00
44297;BME280;51842;47.450;8.654;2024-02-15T07:43:50;95898.09;;;3.61;100.00
44297;BME280;51842;47.450;8.654;2024-02-15T07:46:18;95890.09;;;3.75;100.00
44297;BME280;51842;47.450;8.654;2024-02-15T07:48:44;95891.94;;;3.99;100.00
44297;BME280;51842;47.450;8.654;2024-02-15T07:51:16;95891.06;;;4.30;100.00
44297;BME280;51842;47.450;8.654;2024-02-15T07:53:42;95887.50;;;4.61;100.00
44297;BME280;51842;47.450;8.654;2024-02-15T07:56:14;95882.28;;;4.92;100.00
44297;BME280;51842;47.450;8.654;2024-02-15T07:58:48;95882.31;;;5.22;100.00
44297;BME280;51842;47.450;8.654;2024-02-15T08:01:17;95883.13;;;5.52;100.00
44297;BME280;51842;47.450;8.654;2024-02-15T08:03:46;95876.06;;;5.76;100.00
44297;BME280;51842;47.450;8.654;2024-02-15T08:06:17;95877.41;;;5.97;99.85
44297;BME280;51842;47.450;8.654;2024-02-15T08:08:46;95880.44;;;6.24;97.08
44297;BME280;51842;47.450;8.654;2024-02-15T08:11:14;95863.84;;;6.53;95.20
44297;BME280;51842;47.450;8.654;2024-02-15T08:13:51;95859.88;;;6.79;94.93
44297;BME280;51842;47.450;8.654;2024-02-15T08:16:22;95858.69;;;6.98;94.59
44297;BME280;51842;47.450;8.654;2024-02-15T08:18:49;95855.19;;;7.21;93.08
44297;BME280;51842;47.450;8.654;2024-02-15T08:21:18;95845.34;;;7.33;89.16
44297;BME280;51842;47.450;8.654;2024-02-15T08:23:50;95848.59;;;7.52;87.79
44297;BME280;51842;47.450;8.654;2024-02-15T08:26:16;95840.66;;;7.69;86.04
44297;BME280;51842;47.450;8.654;2024-02-15T08:28:42;95830.47;;;7.78;83.60
44297;BME280;51842;47.450;8.654;2024-02-15T08:31:08;95832.78;;;7.91;84.21
44297;BME280;51842;47.450;8.654;2024-02-15T08:33:35;95824.50;;;8.04;83.08
44297;BME280;51842;47.450;8.654;2024-02-15T08:36:02;95829.63;;;8.28;81.10
44297;BME280;51842;47.450;8.654;2024-02-15T08:38:29;95826.25;;;8.49;80.49
44297;BME280;51842;47.450;8.654;2024-02-15T08:40:55;95825.22;;;8.72;80.95
44297;BME280;51842;47.450;8.654;2024-02-15T08:43:20;95816.69;;;8.92;81.93
44297;BME280;51842;47.450;8.654;2024-02-15T08:45:46;95819.06;;;9.16;80.45
44297;BME280;51842;47.450;8.654;2024-02-15T08:48:13;95823.78;;;9.36;77.37
44297;BME280;51842;47.450;8.654;2024-02-15T08:50:40;95806.19;;;9.57;75.75
44297;BME280;51842;47.450;8.654;2024-02-15T08:53:07;95800.22;;;9.77;74.05
44297;BME280;51842;47.450;8.654;2024-02-15T08:55:33;95795.03;;;9.92;70.92
44297;BME280;51842;47.450;8.654;2024-02-15T08:58:02;95798.16;;;10.21;72.72
44297;BME280;51842;47.450;8.654;2024-02-15T09:00:28;95788.50;;;10.52;71.59
44297;BME280;51842;47.450;8.654;2024-02-15T09:02:54;95784.13;;;10.83;69.87
44297;BME280;51842;47.450;8.654;2024-02-15T09:05:21;95779.44;;;11.16;68.98
44297;BME280;51842;47.450;8.654;2024-02-15T09:07:48;95781.38;;;11.41;64.19
44297;BME280;51842;47.450;8.654;2024-02-15T09:10:16;95774.16;;;11.62;63.84
44297;BME280;51842;47.450;8.654;2024-02-15T09:12:45;95784.56;;;11.84;62.53
44297;BME280;51842;47.450;8.654;2024-02-15T09:15:15;95790.47;;;12.01;62.28
44297;BME280;51842;47.450;8.654;2024-02-15T09:17:43;95788.63;;;11.92;63.83
44297;BME280;51842;47.450;8.654;2024-02-15T09:20:13;95781.91;;;11.74;63.64
44297;BME280;51842;47.450;8.654;2024-02-15T09:22:52;95782.97;;;11.83;63.47
44297;BME280;51842;47.450;8.654;2024-02-15T09:25:21;95783.00;;;12.09;62.38
44297;BME280;51842;47.450;8.654;2024-02-15T09:27:51;95784.88;;;12.13;59.58
44297;BME280;51842;47.450;8.654;2024-02-15T09:30:19;95768.59;;;11.89;59.87
44297;BME280;51842;47.450;8.654;2024-02-15T09:32:45;95760.06;;;11.92;57.72
44297;BME280;51842;47.450;8.654;2024-02-15T09:35:13;95762.94;;;12.21;58.50
44297;BME280;51842;47.450;8.654;2024-02-15T09:37:46;95752.75;;;12.44;58.29
44297;BME280;51842;47.450;8.654;2024-02-15T09:40:18;95749.72;;;12.66;58.93
44297;BME280;51842;47.450;8.654;2024-02-15T09:42:46;95748.06;;;12.85;57.69
44297;BME280;51842;47.450;8.654;2024-02-15T09:45:14;95755.47;;;13.04;56.92
44297;BME280;51842;47.450;8.654;2024-02-15T09:47:42;95759.59;;;13.30;56.60
44297;BME280;51842;47.450;8.654;2024-02-15T09:50:11;95756.31;;;13.43;56.20
44297;BME280;51842;47.450;8.654;2024-02-15T09:52:44;95752.16;;;13.67;54.83
44297;BME280;51842;47.450;8.654;2024-02-15T09:55:12;95744.69;;;13.63;54.80
44297;BME280;51842;47.450;8.654;2024-02-15T09:57:42;95749.94;;;13.74;54.75
44297;BME280;51842;47.450;8.654;2024-02-15T10:00:11;95747.63;;;13.91;55.01
44297;BME280;51842;47.450;8.654;2024-02-15T10:02:44;95753.66;;;14.07;54.14
44297;BME280;51842;47.450;8.654;2024-02-15T10:05:12;95763.31;;;14.08;54.28
44297;BME280;51842;47.450;8.654;2024-02-15T10:07:43;95752.03;;;14.35;54.04
44297;BME280;51842;47.450;8.654;2024-02-15T10:10:23;95748.56;;;14.64;53.01
44297;BME280;51842;47.450;8.654;2024-02-15T10:12:53;95750.28;;;14.97;51.27
44297;BME280;51842;47.450;8.654;2024-02-15T10:15:38;95759.44;;;15.34;51.26
44297;BME280;51842;47.450;8.654;2024-02-15T10:18:10;95754.28;;;15.38;50.17
44297;BME280;51842;47.450;8.654;2024-02-15T10:20:41;95755.47;;;15.32;51.14
44297;BME280;51842;47.450;8.654;2024-02-15T10:23:14;95754.59;;;15.55;51.72
44297;BME280;51842;47.450;8.654;2024-02-15T10:25:43;95756.28;;;15.70;50.85
44297;BME280;51842;47.450;8.654;2024-02-15T10:28:12;95750.50;;;15.95;50.80
44297;BME280;51842;47.450;8.654;2024-02-15T10:30:43;95751.41;;;16.05;50.94
44297;BME280;51842;47.450;8.654;2024-02-15T10:33:28;95748.09;;;16.27;50.31
44297;BME280;51842;47.450;8.654;2024-02-15T10:36:15;95744.59;;;16.54;49.45
44297;BME280;51842;47.450;8.654;2024-02-15T10:38:42;95749.31;;;16.76;48.75
44297;BME280;51842;47.450;8.654;2024-02-15T10:41:09;95738.34;;;16.72;48.45
44297;BME280;51842;47.450;8.654;2024-02-15T10:43:37;95738.34;;;17.00;48.44
44297;BME280;51842;47.450;8.654;2024-02-15T10:46:06;95738.41;;;17.22;46.75
44297;BME280;51842;47.450;8.654;2024-02-15T10:48:36;95722.94;;;17.28;46.89
44297;BME280;51842;47.450;8.654;2024-02-15T10:51:10;95731.44;;;17.07;46.80
44297;BME280;51842;47.450;8.654;2024-02-15T10:53:49;95729.41;;;16.77;46.95
44297;BME280;51842;47.450;8.654;2024-02-15T10:56:36;95719.09;;;16.51;47.43
44297;BME280;51842;47.450;8.654;2024-02-15T10:59:18;95720.81;;;16.47;47.82
44297;BME280;51842;47.450;8.654;2024-02-15T11:01:46;95715.72;;;16.73;45.78
44297;BME280;51842;47.450;8.654;2024-02-15T11:04:21;95710.97;;;16.84;45.84
44297;BME280;51842;47.450;8.654;2024-02-15T11:06:50;95709.63;;;16.95;46.11
44297;BME280;51842;47.450;8.654;2024-02-15T11:09:19;95702.78;;;16.89;44.79
44297;BME280;51842;47.450;8.654;2024-02-15T11:11:47;95707.78;;;16.96;44.60
44297;BME280;51842;47.450;8.654;2024-02-15T11:14:26;95697.59;;;17.29;44.98
44297;BME280;51842;47.450;8.654;2024-02-15T11:16:58;95695.91;;;17.33;44.49
44297;BME280;51842;47.450;8.654;2024-02-15T11:19:43;95691.88;;;17.44;45.66
44297;BME280;51842;47.450;8.654;2024-02-15T11:22:17;95686.16;;;17.23;44.52
44297;BME280;51842;47.450;8.654;2024-02-15T11:24:52;95683.06;;;17.30;47.03
44297;BME280;51842;47.450;8.654;2024-02-15T11:27:29;95685.38;;;17.45;46.18
44297;BME280;51842;47.450;8.654;2024-02-15T11:29:59;95689.50;;;17.43;45.83
44297;BME280;51842;47.450;8.654;2024-02-15T11:32:42;95688.63;;;17.56;46.62
44297;BME280;51842;47.450;8.654;2024-02-15T11:35:21;95679.69;;;17.69;45.73
44297;BME280;51842;47.450;8.654;2024-02-15T11:40:23;95670.75;;;17.60;45.51
44297;BME280;51842;47.450;8.654;2024-02-15T11:42:59;95672.72;;;17.68;45.89
44297;BME280;51842;47.450;8.654;2024-02-15T11:45:27;95666.31;;;17.78;46.17
44297;BME280;51842;47.450;8.654;2024-02-15T11:48:14;95675.47;;;17.99;44.13
44297;BME280;51842;47.450;8.654;2024-02-15T11:50:41;95672.78;;;18.08;44.30
44297;BME280;51842;47.450;8.654;2024-02-15T11:53:09;95668.09;;;18.22;44.14
44297;BME280;51842;47.450;8.654;2024-02-15T11:55:39;95670.94;;;18.57;42.03
44297;BME280;51842;47.450;8.654;2024-02-15T11:58:08;95670.38;;;18.86;42.57
44297;BME280;51842;47.450;8.654;2024-02-15T12:00:35;95665.50;;;19.06;43.17
44297;BME280;51842;47.450;8.654;2024-02-15T12:03:22;95666.94;;;19.38;42.30
44297;BME280;51842;47.450;8.654;2024-02-15T12:06:07;95649.63;;;19.65;41.78
44297;BME280;51842;47.450;8.654;2024-02-15T12:08:54;95647.63;;;20.00;39.85
44297;BME280;51842;47.450;8.654;2024-02-15T12:11:40;95648.19;;;20.23;39.38
44297;BME280;51842;47.450;8.654;2024-02-15T12:14:25;95650.31;;;20.47;38.87
44297;BME280;51842;47.450;8.654;2024-02-15T12:17:14;95639.13;;;20.58;38.89
44297;BME280;51842;47.450;8.654;2024-02-15T12:20:04;95643.63;;;20.53;39.55
44297;BME280;51842;47.450;8.654;2024-02-15T12:22:48;95634.84;;;20.56;39.64
44297;BME280;51842;47.450;8.654;2024-02-15T12:25:17;95632.19;;;20.39;39.61
44297;BME280;51842;47.450;8.654;2024-02-15T12:27:54;95622.03;;;20.36;39.39
44297;BME280;51842;47.450;8.654;2024-02-15T12:30:20;95621.50;;;20.13;39.09
44297;BME280;51842;47.450;8.654;2024-02-15T12:32:48;95616.59;;;20.06;40.80
44297;BME280;51842;47.450;8.654;2024-02-15T12:35:21;95606.81;;;19.84;40.74
44297;BME280;51842;47.450;8.654;2024-02-15T12:38:03;95599.56;;;19.59;40.63
44297;BME280;51842;47.450;8.654;2024-02-15T12:40:39;95595.00;;;19.25;41.75
44297;BME280;51842;47.450;8.654;2024-02-15T12:43:07;95596.56;;;19.08;42.22
44297;BME280;51842;47.450;8.654;2024-02-15T12:45:40;95594.06;;;19.03;42.96
44297;BME280;51842;47.450;8.654;2024-02-15T12:48:10;95597.19;;;19.05;42.66
44297;BME280;51842;47.450;8.654;2024-02-15T12:50:41;95581.94;;;19.27;42.65
44297;BME280;51842;47.450;8.654;2024-02-15T12:53:07;95581.59;;;19.54;42.51
44297;BME280;51842;47.450;8.654;2024-02-15T12:55:36;95584.63;;;19.44;42.96
44297;BME280;51842;47.450;8.654;2024-02-15T12:58:13;95584.91;;;19.60;42.87
44297;BME280;51842;47.450;8.654;2024-02-15T13:00:40;95580.25;;;19.86;42.35
44297;BME280;51842;47.450;8.654;2024-02-15T13:03:09;95582.09;;;20.03;40.69
44297;BME280;51842;47.450;8.654;2024-02-15T13:05:40;95577.06;;;20.23;39.52
44297;BME280;51842;47.450;8.654;2024-02-15T13:08:09;95575.44;;;20.01;40.00
44297;BME280;51842;47.450;8.654;2024-02-15T13:10:38;95561.91;;;20.30;39.12
44297;BME280;51842;47.450;8.654;2024-02-15T13:13:07;95559.28;;;20.51;39.24
44297;BME280;51842;47.450;8.654;2024-02-15T13:15:35;95561.00;;;20.77;38.15
44297;BME280;51842;47.450;8.654;2024-02-15T13:18:03;95555.59;;;20.56;38.17